sensor_id;sensor_type;location;lat;lon;timestamp;pressure;altitude;pressure_sealevel;temperature
9119;BMP180;4594;50.994;7.126;2022-11-02T00:02:07;100797.00;;;18.10
9119;BMP180;4594;50.994;7.126;2022-11-02T00:04:33;100793.00;;;18.20
9119;BMP180;4594;50.994;7.126;2022-11-02T00:06:58;100779.00;;;18.20
9119;BMP180;4594;50.994;7.126;2022-11-02T00:09:24;100791.00;;;18.30
9119;BMP180;4594;50.994;7.126;2022-11-02T00:11:50;100781.00;;;18.30
9119;BMP180;4594;50.994;7.126;2022-11-02T00:14:15;100781.00;;;18.30
9119;BMP180;4594;50.994;7.126;2022-11-02T00:16:41;100769.00;;;18.40
9119;BMP180;4594;50.994;7.126;2022-11-02T00:19:07;100786.00;;;18.40
9119;BMP180;4594;50.994;7.126;2022-11-02T00:21:35;100793.00;;;18.50
9119;BMP180;4594;50.994;7.126;2022-11-02T00:24:01;100791.00;;;18.50
9119;BMP180;4594;50.994;7.126;2022-11-02T00:26:28;100791.00;;;18.50
9119;BMP180;4594;50.994;7.126;2022-11-02T00:28:54;100786.00;;;18.60
9119;BMP180;4594;50.994;7.126;2022-11-02T00:31:20;100797.00;;;18.60
9119;BMP180;4594;50.994;7.126;2022-11-02T00:33:45;100793.00;;;18.60
9119;BMP180;4594;50.994;7.126;2022-11-02T00:36:11;100795.00;;;18.70
9119;BMP180;4594;50.994;7.126;2022-11-02T00:38:37;100787.00;;;18.70
9119;BMP180;4594;50.994;7.126;2022-11-02T00:41:03;100787.00;;;18.70
9119;BMP180;4594;50.994;7.126;2022-11-02T00:43:28;100789.00;;;18.70
9119;BMP180;4594;50.994;7.126;2022-11-02T00:45:54;100785.00;;;18.70
9119;BMP180;4594;50.994;7.126;2022-11-02T00:48:21;100796.00;;;18.80
9119;BMP180;4594;50.994;7.126;2022-11-02T00:50:46;100802.00;;;18.80
9119;BMP180;4594;50.994;7.126;2022-11-02T00:53:12;100811.00;;;18.80
9119;BMP180;4594;50.994;7.126;2022-11-02T00:55:37;100800.00;;;18.70
9119;BMP180;4594;50.994;7.126;2022-11-02T00:58:03;100792.00;;;18.70
9119;BMP180;4594;50.994;7.126;2022-11-02T01:00:29;100798.00;;;18.80
9119;BMP180;4594;50.994;7.126;2022-11-02T01:02:58;100800.00;;;18.70
9119;BMP180;4594;50.994;7.126;2022-11-02T01:05:24;100807.00;;;18.70
9119;BMP180;4594;50.994;7.126;2022-11-02T01:07:51;100798.00;;;18.70
9119;BMP180;4594;50.994;7.126;2022-11-02T01:10:17;100787.00;;;18.70
9119;BMP180;4594;50.994;7.126;2022-11-02T01:12:43;100784.00;;;18.70
9119;BMP180;4594;50.994;7.126;2022-11-02T01:15:09;100800.00;;;18.70
9119;BMP180;4594;50.994;7.126;2022-11-02T01:17:37;100798.00;;;18.70
9119;BMP180;4594;50.994;7.126;2022-11-02T01:20:04;100799.00;;;18.70
9119;BMP180;4594;50.994;7.126;2022-11-02T01:22:31;100804.00;;;18.70
9119;BMP180;4594;50.994;7.126;2022-11-02T01:24:56;100811.00;;;18.70
9119;BMP180;4594;50.994;7.126;2022-11-02T01:27:22;100810.00;;;18.70
9119;BMP180;4594;50.994;7.126;2022-11-02T01:29:48;100802.00;;;18.70
9119;BMP180;4594;50.994;7.126;2022-11-02T01:32:13;100804.00;;;18.70
9119;BMP180;4594;50.994;7.126;2022-11-02T01:34:39;100813.00;;;18.70
9119;BMP180;4594;50.994;7.126;2022-11-02T01:37:05;100798.00;;;18.70
9119;BMP180;4594;50.994;7.126;2022-11-02T01:39:30;100800.00;;;18.70
9119;BMP180;4594;50.994;7.126;2022-11-02T01:41:56;100802.00;;;18.70
9119;BMP180;4594;50.994;7.126;2022-11-02T01:44:26;100805.00;;;18.70
9119;BMP180;4594;50.994;7.126;2022-11-02T01:46:59;100799.00;;;18.70
9119;BMP180;4594;50.994;7.126;2022-11-02T01:49:27;100804.00;;;18.70
9119;BMP180;4594;50.994;7.126;2022-11-02T01:52:17;100797.00;;;18.70
9119;BMP180;4594;50.994;7.126;2022-11-02T01:55:17;100798.00;;;18.60
9119;BMP180;4594;50.994;7.126;2022-11-02T01:57:52;100790.00;;;18.60
9119;BMP180;4594;50.994;7.126;2022-11-02T02:00:19;100798.00;;;18.50
9119;BMP180;4594;50.994;7.126;2022-11-02T02:03:00;100799.00;;;18.50
9119;BMP180;4594;50.994;7.126;2022-11-02T02:05:28;100795.00;;;18.50
9119;BMP180;4594;50.994;7.126;2022-11-02T02:07:55;100801.00;;;18.40
9119;BMP180;4594;50.994;7.126;2022-11-02T02:10:21;100791.00;;;18.40
9119;BMP180;4594;50.994;7.126;2022-11-02T02:12:47;100794.00;;;18.40
9119;BMP180;4594;50.994;7.126;2022-11-02T02:15:13;100797.00;;;18.30
9119;BMP180;4594;50.994;7.126;2022-11-02T02:18:06;100799.00;;;18.30
9119;BMP180;4594;50.994;7.126;2022-11-02T02:21:30;100797.00;;;18.10
9119;BMP180;4594;50.994;7.126;2022-11-02T02:27:04;100788.00;;;18.00
9119;BMP180;4594;50.994;7.126;2022-11-02T02:29:51;100793.00;;;18.00
9119;BMP180;4594;50.994;7.126;2022-11-02T02:32:49;100796.00;;;17.90
9119;BMP180;4594;50.994;7.126;2022-11-02T02:35:31;100796.00;;;17.90
9119;BMP180;4594;50.994;7.126;2022-11-02T02:38:10;100790.00;;;17.80
9119;BMP180;4594;50.994;7.126;2022-11-02T02:41:10;100794.00;;;17.80
9119;BMP180;4594;50.994;7.126;2022-11-02T02:43:45;100797.00;;;17.80
9119;BMP180;4594;50.994;7.126;2022-11-02T02:46:46;100795.00;;;17.80
9119;BMP180;4594;50.994;7.126;2022-11-02T02:49:24;100797.00;;;17.80
9119;BMP180;4594;50.994;7.126;2022-11-02T02:51:55;100792.00;;;17.80
9119;BMP180;4594;50.994;7.126;2022-11-02T02:54:38;100790.00;;;17.80
9119;BMP180;4594;50.994;7.126;2022-11-02T02:57:12;100797.00;;;17.80
9119;BMP180;4594;50.994;7.126;2022-11-02T02:59:47;100800.00;;;17.70
9119;BMP180;4594;50.994;7.126;2022-11-02T03:02:33;100788.00;;;17.70
9119;BMP180;4594;50.994;7.126;2022-11-02T03:05:00;100795.00;;;17.60
9119;BMP180;4594;50.994;7.126;2022-11-02T03:07:30;100799.00;;;17.60
9119;BMP180;4594;50.994;7.126;2022-11-02T03:10:27;100802.00;;;17.60
9119;BMP180;4594;50.994;7.126;2022-11-02T03:16:03;100800.00;;;17.50
9119;BMP180;4594;50.994;7.126;2022-11-02T03:18:52;100805.00;;;17.50
9119;BMP180;4594;50.994;7.126;2022-11-02T03:21:42;100800.00;;;17.50
9119;BMP180;4594;50.994;7.126;2022-11-02T03:24:26;100805.00;;;17.60
9119;BMP180;4594;50.994;7.126;2022-11-02T03:30:02;100812.00;;;17.70
9119;BMP180;4594;50.994;7.126;2022-11-02T03:35:13;100817.00;;;17.80
9119;BMP180;4594;50.994;7.126;2022-11-02T03:37:50;100822.00;;;17.80
9119;BMP180;4594;50.994;7.126;2022-11-02T03:40:46;100824.00;;;17.80
9119;BMP180;4594;50.994;7.126;2022-11-02T03:43:15;100818.00;;;17.90
9119;BMP180;4594;50.994;7.126;2022-11-02T03:45:49;100816.00;;;17.90
9119;BMP180;4594;50.994;7.126;2022-11-02T03:48:18;100832.00;;;18.00
9119;BMP180;4594;50.994;7.126;2022-11-02T03:50:49;100832.00;;;18.00
9119;BMP180;4594;50.994;7.126;2022-11-02T03:53:34;100832.00;;;18.00
9119;BMP180;4594;50.994;7.126;2022-11-02T03:56:08;100828.00;;;18.10
9119;BMP180;4594;50.994;7.126;2022-11-02T03:58:35;100838.00;;;18.10
9119;BMP180;4594;50.994;7.126;2022-11-02T04:01:05;100834.00;;;18.10
9119;BMP180;4594;50.994;7.126;2022-11-02T04:03:36;100833.00;;;18.10
9119;BMP180;4594;50.994;7.126;2022-11-02T04:06:03;100846.00;;;18.10
9119;BMP180;4594;50.994;7.126;2022-11-02T04:08:41;100854.00;;;18.10
9119;BMP180;4594;50.994;7.126;2022-11-02T04:11:08;100855.00;;;18.10
9119;BMP180;4594;50.994;7.126;2022-11-02T04:13:52;100846.00;;;18.00
9119;BMP180;4594;50.994;7.126;2022-11-02T04:16:36;100858.00;;;18.00
9119;BMP180;4594;50.994;7.126;2022-11-02T04:19:03;100865.00;;;18.00
9119;BMP180;4594;50.994;7.126;2022-11-02T04:22:07;100850.00;;;18.00
9119;BMP180;4594;50.994;7.126;2022-11-02T04:24:51;100868.00;;;17.90
9119;BMP180;4594;50.994;7.126;2022-11-02T04:27:35;100879.00;;;17.90
9119;BMP180;4594;50.994;7.126;2022-11-02T04:30:01;100884.00;;;17.90
9119;BMP180;4594;50.994;7.126;2022-11-02T04:32:27;100883.00;;;17.90
9119;BMP180;4594;50.994;7.126;2022-11-02T04:35:11;100895.00;;;17.90
9119;BMP180;4594;50.994;7.126;2022-11-02T04:37:41;100909.00;;;17.90
9119;BMP180;4594;50.994;7.126;2022-11-02T04:40:26;100909.00;;;18.00
9119;BMP180;4594;50.994;7.126;2022-11-02T04:42:52;100905.00;;;17.90
9119;BMP180;4594;50.994;7.126;2022-11-02T04:45:18;100906.00;;;17.90
9119;BMP180;4594;50.994;7.126;2022-11-02T04:47:44;100917.00;;;17.90
9119;BMP180;4594;50.994;7.126;2022-11-02T04:50:10;100918.00;;;17.90
9119;BMP180;4594;50.994;7.126;2022-11-02T04:52:37;100916.00;;;17.80
9119;BMP180;4594;50.994;7.126;2022-11-02T04:55:03;100917.00;;;17.80
9119;BMP180;4594;50.994;7.126;2022-11-02T04:57:29;100921.00;;;17.70
9119;BMP180;4594;50.994;7.126;2022-11-02T04:59:55;100909.00;;;17.70
9119;BMP180;4594;50.994;7.126;2022-11-02T05:02:20;100917.00;;;17.60
9119;BMP180;4594;50.994;7.126;2022-11-02T05:04:46;100923.00;;;17.50
9119;BMP180;4594;50.994;7.126;2022-11-02T05:07:12;100924.00;;;17.50
9119;BMP180;4594;50.994;7.126;2022-11-02T05:09:37;100933.00;;;17.40
9119;BMP180;4594;50.994;7.126;2022-11-02T05:12:04;100928.00;;;17.40
9119;BMP180;4594;50.994;7.126;2022-11-02T05:14:33;100926.00;;;17.30
9119;BMP180;4594;50.994;7.126;2022-11-02T05:16:59;100938.00;;;17.20
9119;BMP180;4594;50.994;7.126;2022-11-02T05:19:25;100929.00;;;17.20
9119;BMP180;4594;50.994;7.126;2022-11-02T05:21:51;100944.00;;;17.10
9119;BMP180;4594;50.994;7.126;2022-11-02T05:24:16;100939.00;;;17.10
9119;BMP180;4594;50.994;7.126;2022-11-02T05:26:42;100954.00;;;17.00
9119;BMP180;4594;50.994;7.126;2022-11-02T05:29:08;100954.00;;;17.00
9119;BMP180;4594;50.994;7.126;2022-11-02T05:31:34;100924.00;;;16.90
9119;BMP180;4594;50.994;7.126;2022-11-02T05:34:00;100963.00;;;16.90
9119;BMP180;4594;50.994;7.126;2022-11-02T05:36:25;100941.00;;;16.80
9119;BMP180;4594;50.994;7.126;2022-11-02T05:38:53;100956.00;;;16.80
9119;BMP180;4594;50.994;7.126;2022-11-02T05:41:19;100966.00;;;16.80
9119;BMP180;4594;50.994;7.126;2022-11-02T05:43:45;100948.00;;;16.70
9119;BMP180;4594;50.994;7.126;2022-11-02T05:46:11;100956.00;;;16.70
9119;BMP180;4594;50.994;7.126;2022-11-02T05:48:40;100969.00;;;16.70
9119;BMP180;4594;50.994;7.126;2022-11-02T05:51:06;100952.00;;;16.60
9119;BMP180;4594;50.994;7.126;2022-11-02T05:53:33;100972.00;;;16.60
9119;BMP180;4594;50.994;7.126;2022-11-02T05:56:05;100970.00;;;16.60
9119;BMP180;4594;50.994;7.126;2022-11-02T05:58:32;100985.00;;;16.60
9119;BMP180;4594;50.994;7.126;2022-11-02T06:01:03;100995.00;;;16.60
9119;BMP180;4594;50.994;7.126;2022-11-02T06:03:30;100988.00;;;16.60
9119;BMP180;4594;50.994;7.126;2022-11-02T06:05:59;100985.00;;;16.60
9119;BMP180;4594;50.994;7.126;2022-11-02T06:08:26;100997.00;;;16.60
9119;BMP180;4594;50.994;7.126;2022-11-02T06:10:52;101000.00;;;16.60
9119;BMP180;4594;50.994;7.126;2022-11-02T06:13:18;101006.00;;;16.70
9119;BMP180;4594;50.994;7.126;2022-11-02T06:15:44;101001.00;;;16.70
9119;BMP180;4594;50.994;7.126;2022-11-02T06:18:10;101008.00;;;16.70
9119;BMP180;4594;50.994;7.126;2022-11-02T06:20:35;101009.00;;;16.70
9119;BMP180;4594;50.994;7.126;2022-11-02T06:23:01;101012.00;;;16.80
9119;BMP180;4594;50.994;7.126;2022-11-02T06:25:27;101005.00;;;16.80
9119;BMP180;4594;50.994;7.126;2022-11-02T06:27:55;101025.00;;;16.90
9119;BMP180;4594;50.994;7.126;2022-11-02T06:30:23;101025.00;;;16.90
9119;BMP180;4594;50.994;7.126;2022-11-02T06:32:51;101029.00;;;17.00
9119;BMP180;4594;50.994;7.126;2022-11-02T06:35:19;101032.00;;;17.00
9119;BMP180;4594;50.994;7.126;2022-11-02T06:37:46;101034.00;;;17.00
9119;BMP180;4594;50.994;7.126;2022-11-02T06:40:13;101038.00;;;17.10
9119;BMP180;4594;50.994;7.126;2022-11-02T06:42:39;101045.00;;;17.10
9119;BMP180;4594;50.994;7.126;2022-11-02T06:45:06;101041.00;;;17.20
9119;BMP180;4594;50.994;7.126;2022-11-02T06:47:35;101047.00;;;17.20
9119;BMP180;4594;50.994;7.126;2022-11-02T06:50:03;101053.00;;;17.20
9119;BMP180;4594;50.994;7.126;2022-11-02T06:52:29;101058.00;;;17.20
9119;BMP180;4594;50.994;7.126;2022-11-02T06:54:55;101069.00;;;17.20
9119;BMP180;4594;50.994;7.126;2022-11-02T06:57:21;101072.00;;;17.20
9119;BMP180;4594;50.994;7.126;2022-11-02T06:59:47;101074.00;;;17.20
9119;BMP180;4594;50.994;7.126;2022-11-02T07:02:13;101075.00;;;17.20
9119;BMP180;4594;50.994;7.126;2022-11-02T07:04:39;101077.00;;;17.20
9119;BMP180;4594;50.994;7.126;2022-11-02T07:07:05;101074.00;;;17.30
9119;BMP180;4594;50.994;7.126;2022-11-02T07:09:30;101076.00;;;17.30
9119;BMP180;4594;50.994;7.126;2022-11-02T07:11:57;101096.00;;;17.30
9119;BMP180;4594;50.994;7.126;2022-11-02T07:14:22;101106.00;;;17.30
9119;BMP180;4594;50.994;7.126;2022-11-02T07:16:48;101102.00;;;17.30
9119;BMP180;4594;50.994;7.126;2022-11-02T07:19:14;101105.00;;;17.40
9119;BMP180;4594;50.994;7.126;2022-11-02T07:21:39;101109.00;;;17.60
9119;BMP180;4594;50.994;7.126;2022-11-02T07:24:05;101126.00;;;17.90
9119;BMP180;4594;50.994;7.126;2022-11-02T07:26:31;101118.00;;;18.10
9119;BMP180;4594;50.994;7.126;2022-11-02T07:28:57;101115.00;;;18.30
9119;BMP180;4594;50.994;7.126;2022-11-02T07:31:22;101116.00;;;18.60
9119;BMP180;4594;50.994;7.126;2022-11-02T07:33:48;101127.00;;;18.80
9119;BMP180;4594;50.994;7.126;2022-11-02T07:36:14;101134.00;;;19.00
9119;BMP180;4594;50.994;7.126;2022-11-02T07:38:40;101135.00;;;19.10
9119;BMP180;4594;50.994;7.126;2022-11-02T07:41:06;101133.00;;;19.30
9119;BMP180;4594;50.994;7.126;2022-11-02T07:43:32;101142.00;;;19.60
9119;BMP180;4594;50.994;7.126;2022-11-02T07:46:00;101145.00;;;19.80
9119;BMP180;4594;50.994;7.126;2022-11-02T07:48:26;101143.00;;;20.10
9119;BMP180;4594;50.994;7.126;2022-11-02T07:50:52;101142.00;;;20.50
9119;BMP180;4594;50.994;7.126;2022-11-02T07:53:17;101161.00;;;20.70
9119;BMP180;4594;50.994;7.126;2022-11-02T07:55:43;101159.00;;;20.80
9119;BMP180;4594;50.994;7.126;2022-11-02T07:58:10;101168.00;;;20.90
9119;BMP180;4594;50.994;7.126;2022-11-02T08:00:40;101177.00;;;21.10
9119;BMP180;4594;50.994;7.126;2022-11-02T08:03:08;101173.00;;;21.20
9119;BMP180;4594;50.994;7.126;2022-11-02T08:05:37;101170.00;;;21.40
9119;BMP180;4594;50.994;7.126;2022-11-02T08:08:15;101177.00;;;21.70
9119;BMP180;4594;50.994;7.126;2022-11-02T08:10:43;101185.00;;;21.80
9119;BMP180;4594;50.994;7.126;2022-11-02T08:13:12;101187.00;;;22.20
9119;BMP180;4594;50.994;7.126;2022-11-02T08:15:39;101185.00;;;22.60
9119;BMP180;4594;50.994;7.126;2022-11-02T08:18:26;101200.00;;;23.00
9119;BMP180;4594;50.994;7.126;2022-11-02T08:20:56;101192.00;;;23.40
9119;BMP180;4594;50.994;7.126;2022-11-02T08:23:22;101209.00;;;23.60
9119;BMP180;4594;50.994;7.126;2022-11-02T08:25:50;101215.00;;;23.80
9119;BMP180;4594;50.994;7.126;2022-11-02T08:28:23;101209.00;;;23.80
9119;BMP180;4594;50.994;7.126;2022-11-02T08:30:50;101212.00;;;24.10
9119;BMP180;4594;50.994;7.126;2022-11-02T08:33:18;101204.00;;;24.50
9119;BMP180;4594;50.994;7.126;2022-11-02T08:35:46;101220.00;;;24.60
9119;BMP180;4594;50.994;7.126;2022-11-02T08:38:12;101212.00;;;24.70
9119;BMP180;4594;50.994;7.126;2022-11-02T08:40:38;101221.00;;;24.80
9119;BMP180;4594;50.994;7.126;2022-11-02T08:43:14;101217.00;;;24.90
9119;BMP180;4594;50.994;7.126;2022-11-02T08:45:43;101229.00;;;25.20
9119;BMP180;4594;50.994;7.126;2022-11-02T08:48:09;101224.00;;;25.40
9119;BMP180;4594;50.994;7.126;2022-11-02T08:50:35;101238.00;;;25.40
9119;BMP180;4594;50.994;7.126;2022-11-02T08:53:00;101234.00;;;25.40
9119;BMP180;4594;50.994;7.126;2022-11-02T08:55:27;101233.00;;;25.60
9119;BMP180;4594;50.994;7.126;2022-11-02T08:57:57;101228.00;;;25.60
9119;BMP180;4594;50.994;7.126;2022-11-02T09:00:32;101240.00;;;25.80
9119;BMP180;4594;50.994;7.126;2022-11-02T09:03:07;101234.00;;;26.00
9119;BMP180;4594;50.994;7.126;2022-11-02T09:05:37;101249.00;;;26.10
9119;BMP180;4594;50.994;7.126;2022-11-02T09:08:06;101241.00;;;26.30
9119;BMP180;4594;50.994;7.126;2022-11-02T09:10:35;101243.00;;;26.40
9119;BMP180;4594;50.994;7.126;2022-11-02T09:13:04;101247.00;;;26.30
9119;BMP180;4594;50.994;7.126;2022-11-02T09:15:34;101232.00;;;26.50
9119;BMP180;4594;50.994;7.126;2022-11-02T09:18:00;101251.00;;;26.70
9119;BMP180;4594;50.994;7.126;2022-11-02T09:20:26;101256.00;;;27.10
9119;BMP180;4594;50.994;7.126;2022-11-02T09:22:52;101254.00;;;27.00
9119;BMP180;4594;50.994;7.126;2022-11-02T09:25:18;101255.00;;;26.90
9119;BMP180;4594;50.994;7.126;2022-11-02T09:27:44;101267.00;;;27.20
9119;BMP180;4594;50.994;7.126;2022-11-02T09:30:11;101253.00;;;27.50
9119;BMP180;4594;50.994;7.126;2022-11-02T09:32:38;101254.00;;;28.00
9119;BMP180;4594;50.994;7.126;2022-11-02T09:35:08;101263.00;;;28.10
9119;BMP180;4594;50.994;7.126;2022-11-02T09:37:36;101265.00;;;28.00
9119;BMP180;4594;50.994;7.126;2022-11-02T09:40:05;101267.00;;;28.40
9119;BMP180;4594;50.994;7.126;2022-11-02T09:42:51;101275.00;;;28.90
9119;BMP180;4594;50.994;7.126;2022-11-02T09:45:21;101273.00;;;29.20
9119;BMP180;4594;50.994;7.126;2022-11-02T09:48:11;101271.00;;;29.70
9119;BMP180;4594;50.994;7.126;2022-11-02T09:50:58;101267.00;;;30.20
9119;BMP180;4594;50.994;7.126;2022-11-02T09:56:49;101273.00;;;31.40
9119;BMP180;4594;50.994;7.126;2022-11-02T09:59:23;101280.00;;;31.90
9119;BMP180;4594;50.994;7.126;2022-11-02T10:05:04;101278.00;;;32.10
9119;BMP180;4594;50.994;7.126;2022-11-02T10:08:09;101283.00;;;32.40
9119;BMP180;4594;50.994;7.126;2022-11-02T10:11:10;101286.00;;;32.50
9119;BMP180;4594;50.994;7.126;2022-11-02T10:13:53;101290.00;;;32.70
9119;BMP180;4594;50.994;7.126;2022-11-02T10:16:34;101299.00;;;32.80
9119;BMP180;4594;50.994;7.126;2022-11-02T10:19:03;101305.00;;;32.70
9119;BMP180;4594;50.994;7.126;2022-11-02T10:21:37;101306.00;;;32.20
9119;BMP180;4594;50.994;7.126;2022-11-02T10:24:25;101299.00;;;31.60
9119;BMP180;4594;50.994;7.126;2022-11-02T10:27:01;101301.00;;;31.10
9119;BMP180;4594;50.994;7.126;2022-11-02T10:29:50;101305.00;;;30.50
9119;BMP180;4594;50.994;7.126;2022-11-02T10:32:17;101287.00;;;30.00
9119;BMP180;4594;50.994;7.126;2022-11-02T10:34:44;101289.00;;;29.60
9119;BMP180;4594;50.994;7.126;2022-11-02T10:51:29;101288.00;;;27.40
9119;BMP180;4594;50.994;7.126;2022-11-02T10:53:55;101281.00;;;27.10
9119;BMP180;4594;50.994;7.126;2022-11-02T10:56:32;101295.00;;;26.90
9119;BMP180;4594;50.994;7.126;2022-11-02T11:01:24;101285.00;;;26.50
9119;BMP180;4594;50.994;7.126;2022-11-02T11:04:04;101295.00;;;26.30
9119;BMP180;4594;50.994;7.126;2022-11-02T11:06:38;101306.00;;;26.10
9119;BMP180;4594;50.994;7.126;2022-11-02T11:12:04;101294.00;;;25.70
9119;BMP180;4594;50.994;7.126;2022-11-02T11:14:52;101287.00;;;25.50
9119;BMP180;4594;50.994;7.126;2022-11-02T11:17:23;101295.00;;;25.40
9119;BMP180;4594;50.994;7.126;2022-11-02T11:19:54;101295.00;;;25.20
9119;BMP180;4594;50.994;7.126;2022-11-02T11:22:27;101298.00;;;25.10
9119;BMP180;4594;50.994;7.126;2022-11-02T11:25:23;101301.00;;;24.90
9119;BMP180;4594;50.994;7.126;2022-11-02T11:27:58;101296.00;;;24.80
9119;BMP180;4594;50.994;7.126;2022-11-02T11:30:33;101287.00;;;24.60
9119;BMP180;4594;50.994;7.126;2022-11-02T11:33:03;101311.00;;;24.50
9119;BMP180;4594;50.994;7.126;2022-11-02T11:35:33;101304.00;;;24.40
9119;BMP180;4594;50.994;7.126;2022-11-02T11:38:08;101300.00;;;24.20
9119;BMP180;4594;50.994;7.126;2022-11-02T11:40:44;101300.00;;;24.10
9119;BMP180;4594;50.994;7.126;2022-11-02T11:43:15;101306.00;;;24.00
9119;BMP180;4594;50.994;7.126;2022-11-02T11:46:01;101307.00;;;23.80
9119;BMP180;4594;50.994;7.126;2022-11-02T11:51:36;101305.00;;;23.60
9119;BMP180;4594;50.994;7.126;2022-11-02T11:54:23;101299.00;;;23.50
9119;BMP180;4594;50.994;7.126;2022-11-02T11:56:54;101294.00;;;23.40
9119;BMP180;4594;50.994;7.126;2022-11-02T12:01:58;101273.00;;;23.20
9119;BMP180;4594;50.994;7.126;2022-11-02T12:04:35;101286.00;;;23.20
9119;BMP180;4594;50.994;7.126;2022-11-02T12:07:16;101286.00;;;23.20
9119;BMP180;4594;50.994;7.126;2022-11-02T12:18:30;101274.00;;;22.80
9119;BMP180;4594;50.994;7.126;2022-11-02T12:24:35;101266.00;;;22.70
9119;BMP180;4594;50.994;7.126;2022-11-02T12:27:50;101246.00;;;22.50
9119;BMP180;4594;50.994;7.126;2022-11-02T12:30:20;101260.00;;;22.50
9119;BMP180;4594;50.994;7.126;2022-11-02T12:47:56;101237.00;;;22.50
9119;BMP180;4594;50.994;7.126;2022-11-02T12:50:58;101237.00;;;22.40
9119;BMP180;4594;50.994;7.126;2022-11-02T12:53:50;101243.00;;;22.40
9119;BMP180;4594;50.994;7.126;2022-11-02T12:59:21;101240.00;;;22.40
9119;BMP180;4594;50.994;7.126;2022-11-02T13:01:53;101235.00;;;22.40
9119;BMP180;4594;50.994;7.126;2022-11-02T13:04:29;101242.00;;;22.40
9119;BMP180;4594;50.994;7.126;2022-11-02T13:07:14;101225.00;;;22.40
9119;BMP180;4594;50.994;7.126;2022-11-02T13:10:06;101226.00;;;22.40
9119;BMP180;4594;50.994;7.126;2022-11-02T13:12:35;101225.00;;;22.40
9119;BMP180;4594;50.994;7.126;2022-11-02T13:15:03;101226.00;;;22.40
9119;BMP180;4594;50.994;7.126;2022-11-02T13:17:48;101220.00;;;22.40
9119;BMP180;4594;50.994;7.126;2022-11-02T13:22:57;101223.00;;;22.40
9119;BMP180;4594;50.994;7.126;2022-11-02T13:25:33;101225.00;;;22.40
9119;BMP180;4594;50.994;7.126;2022-11-02T13:28:07;101212.00;;;22.40
9119;BMP180;4594;50.994;7.126;2022-11-02T13:30:35;101208.00;;;22.30
9119;BMP180;4594;50.994;7.126;2022-11-02T13:33:23;101224.00;;;22.30
9119;BMP180;4594;50.994;7.126;2022-11-02T13:35:51;101221.00;;;22.20
9119;BMP180;4594;50.994;7.126;2022-11-02T13:38:37;101235.00;;;22.20
9119;BMP180;4594;50.994;7.126;2022-11-02T13:50:12;101213.00;;;22.20
9119;BMP180;4594;50.994;7.126;2022-11-02T13:52:59;101207.00;;;22.10
9119;BMP180;4594;50.994;7.126;2022-11-02T13:55:59;101213.00;;;22.10
9119;BMP180;4594;50.994;7.126;2022-11-02T13:58:31;101213.00;;;22.10
9119;BMP180;4594;50.994;7.126;2022-11-02T14:01:07;101196.00;;;22.10
9119;BMP180;4594;50.994;7.126;2022-11-02T14:03:56;101210.00;;;22.10
9119;BMP180;4594;50.994;7.126;2022-11-02T14:06:24;101207.00;;;22.10
9119;BMP180;4594;50.994;7.126;2022-11-02T14:08:54;101204.00;;;22.10
9119;BMP180;4594;50.994;7.126;2022-11-02T14:27:04;101194.00;;;21.80
9119;BMP180;4594;50.994;7.126;2022-11-02T14:29:54;101200.00;;;21.70
9119;BMP180;4594;50.994;7.126;2022-11-02T14:40:23;101197.00;;;21.60
9119;BMP180;4594;50.994;7.126;2022-11-02T14:48:50;101199.00;;;21.30
9119;BMP180;4594;50.994;7.126;2022-11-02T14:51:23;101198.00;;;21.20
9119;BMP180;4594;50.994;7.126;2022-11-02T14:53:58;101190.00;;;21.20
9119;BMP180;4594;50.994;7.126;2022-11-02T14:59:19;101181.00;;;21.10
9119;BMP180;4594;50.994;7.126;2022-11-02T15:02:01;101187.00;;;21.00
9119;BMP180;4594;50.994;7.126;2022-11-02T15:04:30;101179.00;;;21.00
9119;BMP180;4594;50.994;7.126;2022-11-02T15:07:00;101175.00;;;20.90
9119;BMP180;4594;50.994;7.126;2022-11-02T15:09:57;101170.00;;;20.80
9119;BMP180;4594;50.994;7.126;2022-11-02T15:12:30;101167.00;;;20.80
9119;BMP180;4594;50.994;7.126;2022-11-02T15:15:25;101164.00;;;20.70
9119;BMP180;4594;50.994;7.126;2022-11-02T15:20:32;101153.00;;;20.50
9119;BMP180;4594;50.994;7.126;2022-11-02T15:23:20;101164.00;;;20.50
9119;BMP180;4594;50.994;7.126;2022-11-02T15:25:51;101159.00;;;20.40
9119;BMP180;4594;50.994;7.126;2022-11-02T15:28:27;101148.00;;;20.30
9119;BMP180;4594;50.994;7.126;2022-11-02T15:31:18;101148.00;;;20.20
9119;BMP180;4594;50.994;7.126;2022-11-02T15:33:56;101143.00;;;20.20
9119;BMP180;4594;50.994;7.126;2022-11-02T15:36:37;101152.00;;;20.10
9119;BMP180;4594;50.994;7.126;2022-11-02T15:39:08;101151.00;;;20.00
9119;BMP180;4594;50.994;7.126;2022-11-02T15:47:59;101149.00;;;19.70
9119;BMP180;4594;50.994;7.126;2022-11-02T15:53:57;101164.00;;;19.60
9119;BMP180;4594;50.994;7.126;2022-11-02T15:59:47;101161.00;;;19.40
9119;BMP180;4594;50.994;7.126;2022-11-02T16:02:37;101164.00;;;19.30
9119;BMP180;4594;50.994;7.126;2022-11-02T16:05:05;101151.00;;;19.20
9119;BMP180;4594;50.994;7.126;2022-11-02T16:07:31;101152.00;;;19.20
9119;BMP180;4594;50.994;7.126;2022-11-02T16:10:20;101161.00;;;19.10
9119;BMP180;4594;50.994;7.126;2022-11-02T16:13:21;101162.00;;;19.00
9119;BMP180;4594;50.994;7.126;2022-11-02T16:15:48;101160.00;;;18.90
9119;BMP180;4594;50.994;7.126;2022-11-02T16:18:31;101156.00;;;18.90
9119;BMP180;4594;50.994;7.126;2022-11-02T16:21:00;101164.00;;;18.80
9119;BMP180;4594;50.994;7.126;2022-11-02T16:23:31;101155.00;;;18.80
9119;BMP180;4594;50.994;7.126;2022-11-02T16:26:00;101162.00;;;18.70
9119;BMP180;4594;50.994;7.126;2022-11-02T16:28:29;101151.00;;;18.60
9119;BMP180;4594;50.994;7.126;2022-11-02T16:33:39;101154.00;;;18.50
9119;BMP180;4594;50.994;7.126;2022-11-02T16:36:08;101146.00;;;18.50
9119;BMP180;4594;50.994;7.126;2022-11-02T16:38:38;101152.00;;;18.40
9119;BMP180;4594;50.994;7.126;2022-11-02T16:41:12;101149.00;;;18.40
9119;BMP180;4594;50.994;7.126;2022-11-02T16:43:42;101155.00;;;18.30
9119;BMP180;4594;50.994;7.126;2022-11-02T16:46:13;101144.00;;;18.30
9119;BMP180;4594;50.994;7.126;2022-11-02T16:48:39;101154.00;;;18.20
9119;BMP180;4594;50.994;7.126;2022-11-02T16:53:40;101165.00;;;18.10
9119;BMP180;4594;50.994;7.126;2022-11-02T16:59:00;101162.00;;;18.00
9119;BMP180;4594;50.994;7.126;2022-11-02T17:01:34;101162.00;;;17.90
9119;BMP180;4594;50.994;7.126;2022-11-02T17:04:22;101170.00;;;17.90
9119;BMP180;4594;50.994;7.126;2022-11-02T17:06:51;101166.00;;;17.80
9119;BMP180;4594;50.994;7.126;2022-11-02T17:09:22;101165.00;;;17.80
9119;BMP180;4594;50.994;7.126;2022-11-02T17:11:50;101163.00;;;17.80
9119;BMP180;4594;50.994;7.126;2022-11-02T17:14:19;101168.00;;;17.70